Time;durP1;ratioP1;P1;durP2;ratioP2;P2;SDS_P1;SDS_P2;PMS_P1;PMS_P2;Temp;Humidity;BMP_temperature;BMP_pressure;BME280_temperature;BME280_humidity;BME280_pressure;Samples;Min_cycle;Max_cycle;Signal;HPM_P1;HPM_P2
2023/06/14 00:00:52;;;;;;;4.05;3.00;;;20.40;73.60;;;;;;7386633;19;20149;-75
2023/06/14 00:03:21;;;;;;;5.70;3.30;;;20.40;73.20;;;;;;7387627;19;20805;-75
2023/06/14 00:05:48;;;;;;;3.80;2.90;;;20.50;73.70;;;;;;7387765;19;20603;-76
2023/06/14 00:08:14;;;;;;;4.22;3.22;;;20.50;73.40;;;;;;7388109;19;20602;-74
2023/06/14 00:10:43;;;;;;;4.50;2.80;;;20.70;73.70;;;;;;7387322;19;20463;-76
2023/06/14 00:13:09;;;;;;;7.63;3.38;;;20.60;73.30;;;;;;7389696;19;20134;-75
2023/06/14 00:15:35;;;;;;;4.03;2.83;;;20.60;73.20;;;;;;7382791;19;20150;-76
2023/06/14 00:18:02;;;;;;;3.42;2.95;;;20.70;72.90;;;;;;7389036;19;20141;-77
2023/06/14 00:20:28;;;;;;;4.97;3.25;;;20.70;73.10;;;;;;7385692;19;20137;-75
2023/06/14 00:22:57;;;;;;;5.18;3.15;;;20.60;72.60;;;;;;7388047;19;20135;-75
2023/06/14 00:25:26;;;;;;;4.55;2.75;;;20.60;72.80;;;;;;7384820;19;20639;-75
2023/06/14 00:27:53;;;;;;;3.63;2.80;;;20.50;73.20;;;;;;7388818;19;20446;-75
2023/06/14 00:30:19;;;;;;;6.18;3.45;;;20.50;73.80;;;;;;7384585;19;20142;-74
2023/06/14 00:32:46;;;;;;;4.47;3.22;;;20.50;75.00;;;;;;7393230;19;20153;-75
2023/06/14 00:35:13;;;;;;;3.75;2.85;;;20.50;74.80;;;;;;7390491;19;20676;-74
2023/06/14 00:37:39;;;;;;;4.65;3.17;;;20.40;74.70;;;;;;7394508;19;20178;-75
2023/06/14 00:40:06;;;;;;;5.25;3.03;;;20.10;76.10;;;;;;7390482;19;20135;-75
2023/06/14 00:42:32;;;;;;;5.38;3.10;;;20.20;76.20;;;;;;7390732;19;20173;-76
2023/06/14 00:44:59;;;;;;;3.53;2.70;;;20.00;77.00;;;;;;7392748;19;20635;-75
2023/06/14 00:47:24;;;;;;;3.67;2.67;;;20.10;77.20;;;;;;7387577;19;20139;-75
2023/06/14 00:49:51;;;;;;;6.60;3.30;;;20.10;77.40;;;;;;7390017;19;20138;-75
2023/06/14 00:52:18;;;;;;;4.43;2.42;;;20.10;77.20;;;;;;7391830;19;20155;-75
2023/06/14 00:54:44;;;;;;;5.45;2.83;;;20.10;77.30;;;;;;7389560;19;20244;-74
2023/06/14 00:57:11;;;;;;;3.40;2.78;;;20.10;76.90;;;;;;7394862;19;20134;-75
2023/06/14 00:59:45;;;;;;;3.78;3.00;;;19.90;77.60;;;;;;7394803;19;20134;-74
2023/06/14 01:02:12;;;;;;;3.65;2.72;;;20.00;77.30;;;;;;7390614;19;20130;-75
2023/06/14 01:04:44;;;;;;;5.97;2.70;;;20.00;77.10;;;;;;7390949;19;20173;-75
2023/06/14 01:07:20;;;;;;;4.70;3.17;;;20.00;76.60;;;;;;7392242;19;20619;-75
2023/06/14 01:10:15;;;;;;;4.15;2.88;;;19.90;77.10;;;;;;7392284;19;20134;-75
2023/06/14 01:13:15;;;;;;;4.28;3.00;;;19.80;76.80;;;;;;7391810;19;20198;-76
2023/06/14 01:15:43;;;;;;;4.15;2.92;;;19.70;78.00;;;;;;7385758;19;20157;-75
2023/06/14 01:18:17;;;;;;;4.25;2.80;;;19.80;78.10;;;;;;7392094;19;20150;-75
2023/06/14 01:20:44;;;;;;;9.98;3.10;;;19.60;78.00;;;;;;7387661;19;20162;-75
2023/06/14 01:23:15;;;;;;;4.63;3.08;;;19.60;78.70;;;;;;7388531;19;20464;-75
2023/06/14 01:25:44;;;;;;;7.05;3.20;;;19.70;78.90;;;;;;7393076;19;20456;-75
2023/06/14 01:28:12;;;;;;;5.03;3.08;;;19.80;79.00;;;;;;7393246;19;20206;-74
2023/06/14 01:30:44;;;;;;;3.90;2.70;;;19.90;79.30;;;;;;7391613;19;20146;-75
2023/06/14 01:33:15;;;;;;;3.17;2.70;;;19.80;79.40;;;;;;7390711;19;20150;-74
2023/06/14 01:35:46;;;;;;;3.35;3.00;;;19.60;79.80;;;;;;7390536;19;20139;-74
2023/06/14 01:38:14;;;;;;;3.70;2.92;;;19.40;81.00;;;;;;7390087;19;20131;-76
2023/06/14 01:40:40;;;;;;;3.90;2.92;;;19.20;82.50;;;;;;7391810;19;20462;-75
2023/06/14 01:43:07;;;;;;;4.22;2.55;;;19.30;81.60;;;;;;7387223;19;20155;-75
2023/06/14 01:45:33;;;;;;;5.57;2.90;;;19.50;81.50;;;;;;7391317;19;20161;-75
2023/06/14 01:48:00;;;;;;;4.28;3.10;;;19.50;81.90;;;;;;7389710;19;20563;-75
2023/06/14 01:50:31;;;;;;;3.17;2.88;;;19.50;82.00;;;;;;7391999;19;20131;-75
2023/06/14 01:52:57;;;;;;;6.88;3.10;;;19.50;81.80;;;;;;7391071;19;20137;-76
2023/06/14 01:55:24;;;;;;;4.18;3.03;;;19.40;82.20;;;;;;7389543;19;20138;-76
2023/06/14 01:57:51;;;;;;;3.45;2.65;;;18.80;83.40;;;;;;7390906;19;20250;-76
2023/06/14 02:00:18;;;;;;;4.68;2.85;;;18.90;85.10;;;;;;7390057;19;20242;-76
2023/06/14 02:02:44;;;;;;;4.28;2.80;;;18.80;84.90;;;;;;7390097;19;20154;-75
2023/06/14 02:05:10;;;;;;;4.07;2.90;;;19.00;84.90;;;;;;7390097;19;20555;-74
2023/06/14 02:07:36;;;;;;;5.35;2.70;;;19.10;84.20;;;;;;7392072;19;20146;-75
2023/06/14 02:10:03;;;;;;;4.25;3.05;;;19.20;83.70;;;;;;7390385;19;20135;-74
2023/06/14 02:12:29;;;;;;;5.30;3.20;;;19.30;83.70;;;;;;7391953;19;20194;-74
2023/06/14 02:14:56;;;;;;;4.05;2.83;;;19.30;83.10;;;;;;7390476;19;20485;-75
2023/06/14 02:17:22;;;;;;;4.22;3.00;;;19.30;83.10;;;;;;7389404;19;20138;-74
2023/06/14 02:19:48;;;;;;;4.75;2.90;;;19.20;83.40;;;;;;7388893;19;20142;-75
2023/06/14 02:22:14;;;;;;;4.38;2.95;;;19.00;85.10;;;;;;7391055;19;20760;-75
2023/06/14 02:24:43;;;;;;;4.82;2.83;;;18.90;85.60;;;;;;7391295;19;20142;-77
2023/06/14 02:27:10;;;;;;;3.50;2.72;;;18.60;85.50;;;;;;7390268;19;20139;-75
2023/06/14 02:29:36;;;;;;;2.90;2.60;;;18.00;88.00;;;;;;7388940;19;20126;-74
2023/06/14 02:32:02;;;;;;;4.18;3.03;;;18.30;88.50;;;;;;7389488;19;20142;-76
2023/06/14 02:34:28;;;;;;;3.67;3.08;;;18.70;87.30;;;;;;7389608;19;20138;-75
2023/06/14 02:36:55;;;;;;;5.85;2.92;;;18.80;86.50;;;;;;7386174;19;20241;-75
2023/06/14 02:39:23;;;;;;;4.88;2.88;;;18.90;86.30;;;;;;7390067;19;20127;-75
2023/06/14 02:41:50;;;;;;;3.38;2.90;;;18.90;85.90;;;;;;7387647;19;20245;-75
2023/06/14 02:44:18;;;;;;;3.88;3.15;;;18.90;85.30;;;;;;7389291;19;20524;-75
2023/06/14 02:46:43;;;;;;;5.43;2.90;;;19.00;85.50;;;;;;7388697;19;20139;-75
2023/06/14 02:49:11;;;;;;;6.28;2.90;;;19.00;85.60;;;;;;7382448;19;20130;-75
2023/06/14 02:51:36;;;;;;;5.43;2.78;;;19.10;85.60;;;;;;7388661;19;20247;-75
2023/06/14 02:54:03;;;;;;;3.47;2.90;;;19.00;85.40;;;;;;7387160;19;20162;-76
2023/06/14 02:56:29;;;;;;;3.47;2.63;;;19.00;84.90;;;;;;7388270;19;20137;-76
2023/06/14 02:58:55;;;;;;;3.17;2.67;;;19.00;85.10;;;;;;7389768;19;20202;-74
2023/06/14 03:01:21;;;;;;;4.53;3.15;;;18.90;84.90;;;;;;7389612;19;20146;-75
2023/06/14 03:03:47;;;;;;;3.08;2.72;;;18.90;84.90;;;;;;7388197;19;20139;-75
2023/06/14 03:06:13;;;;;;;2.88;2.47;;;18.90;85.50;;;;;;7389907;19;20150;-75
2023/06/14 03:08:41;;;;;;;3.70;2.90;;;18.60;85.80;;;;;;7386240;19;20179;-74
2023/06/14 03:11:07;;;;;;;4.25;2.67;;;18.60;86.80;;;;;;7389172;19;20175;-75
2023/06/14 03:13:34;;;;;;;3.83;2.78;;;18.60;87.30;;;;;;7389508;19;20135;-75
2023/06/14 03:16:02;;;;;;;4.47;3.00;;;18.70;87.50;;;;;;7386676;19;20153;-75
2023/06/14 03:18:30;;;;;;;3.17;2.53;;;18.70;87.70;;;;;;7389007;19;20135;-74
2023/06/14 03:20:57;;;;;;;3.30;2.88;;;18.50;87.50;;;;;;7388670;19;20153;-75
2023/06/14 03:23:26;;;;;;;3.38;2.88;;;18.50;87.50;;;;;;7387534;19;20159;-75
2023/06/14 03:25:52;;;;;;;3.17;2.88;;;18.60;87.40;;;;;;7389848;19;20135;-75
2023/06/14 03:28:18;;;;;;;4.75;2.75;;;18.70;87.90;;;;;;7388465;19;20135;-75
2023/06/14 03:30:44;;;;;;;4.03;2.83;;;18.60;88.30;;;;;;7388278;19;20151;-75
2023/06/14 03:33:10;;;;;;;4.78;3.10;;;18.70;88.50;;;;;;7389028;19;20147;-75
2023/06/14 03:35:36;;;;;;;4.68;3.13;;;18.70;88.60;;;;;;7383934;19;20462;-74
2023/06/14 03:38:03;;;;;;;5.35;2.95;;;18.60;88.60;;;;;;7388655;19;20146;-76
2023/06/14 03:40:29;;;;;;;5.43;3.08;;;18.60;89.50;;;;;;7387610;19;20614;-75
2023/06/14 03:42:55;;;;;;;3.55;2.58;;;18.50;90.10;;;;;;7388779;19;20151;-76
2023/06/14 03:45:21;;;;;;;5.18;3.25;;;18.40;90.30;;;;;;7388292;19;20130;-75
2023/06/14 03:47:47;;;;;;;5.40;2.97;;;18.50;90.50;;;;;;7388883;19;20142;-74
2023/06/14 03:50:13;;;;;;;4.60;3.30;;;18.50;90.70;;;;;;7385128;19;20149;-77
2023/06/14 03:52:42;;;;;;;3.35;3.00;;;18.50;90.60;;;;;;7387747;19;20143;-76
2023/06/14 03:55:08;;;;;;;5.55;3.20;;;18.30;91.10;;;;;;7386335;19;20154;-76
2023/06/14 03:57:34;;;;;;;4.68;3.03;;;18.30;91.40;;;;;;7388852;19;20135;-75
2023/06/14 04:00:00;;;;;;;5.00;3.25;;;18.40;91.70;;;;;;7387827;19;20610;-75
2023/06/14 04:02:28;;;;;;;5.68;3.15;;;18.50;91.80;;;;;;7387739;19;20142;-76
2023/06/14 04:04:54;;;;;;;4.43;3.10;;;18.50;91.60;;;;;;7386248;19;20162;-76
2023/06/14 04:07:20;;;;;;;4.40;3.15;;;18.50;91.90;;;;;;7383269;19;20150;-74
2023/06/14 04:09:47;;;;;;;4.05;3.17;;;18.60;91.80;;;;;;7386128;19;20604;-75
2023/06/14 04:12:13;;;;;;;3.78;2.58;;;18.60;91.80;;;;;;7385918;19;20181;-75
2023/06/14 04:14:41;;;;;;;4.20;3.13;;;18.60;91.60;;;;;;7387153;19;20131;-75
2023/06/14 04:17:07;;;;;;;3.47;3.17;;;18.60;91.00;;;;;;7384132;19;20135;-75
2023/06/14 04:19:33;;;;;;;5.72;3.25;;;18.60;91.00;;;;;;7385712;19;20965;-75
2023/06/14 04:22:02;;;;;;;3.25;2.65;;;18.60;90.80;;;;;;7384394;19;20134;-76
2023/06/14 04:24:31;;;;;;;3.67;3.10;;;18.60;90.70;;;;;;7386704;19;20254;-76
2023/06/14 04:27:03;;;;;;;4.15;2.95;;;18.60;91.10;;;;;;7384549;19;20142;-76
2023/06/14 04:29:29;;;;;;;6.20;3.42;;;18.50;90.90;;;;;;7389539;19;20139;-75
2023/06/14 04:31:58;;;;;;;3.53;3.08;;;18.60;90.90;;;;;;7385401;19;20181;-75
2023/06/14 04:34:32;;;;;;;7.32;3.15;;;18.50;91.10;;;;;;7387649;19;20141;-76
2023/06/14 04:36:59;;;;;;;4.70;3.10;;;18.60;91.10;;;;;;7382187;19;20176;-75
2023/06/14 04:39:25;;;;;;;5.75;3.08;;;18.60;91.00;;;;;;7385744;19;20138;-74
2023/06/14 04:41:52;;;;;;;3.65;2.90;;;18.70;90.90;;;;;;7385574;19;20134;-75
2023/06/14 04:44:19;;;;;;;4.57;2.67;;;18.60;91.20;;;;;;7383095;19;20134;-75
2023/06/14 04:46:45;;;;;;;5.57;3.33;;;18.60;91.30;;;;;;7384900;19;20146;-76
2023/06/14 04:49:18;;;;;;;3.83;3.00;;;18.60;91.60;;;;;;7387434;19;20139;-75
2023/06/14 04:51:45;;;;;;;3.70;3.35;;;18.60;91.60;;;;;;7384780;19;20669;-76
2023/06/14 04:54:14;;;;;;;5.60;3.30;;;18.70;91.40;;;;;;7384916;19;20135;-75
2023/06/14 04:56:46;;;;;;;5.40;3.40;;;18.40;91.70;;;;;;7384668;19;20135;-74
2023/06/14 04:59:12;;;;;;;5.13;3.20;;;18.40;91.90;;;;;;7384994;19;20155;-74
2023/06/14 05:01:38;;;;;;;5.53;3.50;;;18.50;91.60;;;;;;7384341;19;20135;-74
2023/06/14 05:04:04;;;;;;;5.25;3.83;;;18.40;91.70;;;;;;7386009;19;20137;-75
2023/06/14 05:06:30;;;;;;;3.88;3.22;;;18.60;91.40;;;;;;7387273;19;20210;-75
2023/06/14 05:08:56;;;;;;;7.13;4.53;;;18.70;91.10;;;;;;7385772;19;20139;-75
2023/06/14 05:11:26;;;;;;;9.10;3.92;;;18.80;90.70;;;;;;7384594;19;20157;-76
2023/06/14 05:13:54;;;;;;;4.55;3.10;;;18.80;90.80;;;;;;7383985;19;20603;-74
2023/06/14 05:16:22;;;;;;;5.53;3.20;;;18.70;90.80;;;;;;7383425;19;20138;-75
2023/06/14 05:18:48;;;;;;;6.90;3.03;;;18.80;90.50;;;;;;7388624;19;20134;-75
2023/06/14 05:21:17;;;;;;;4.10;2.97;;;18.70;90.20;;;;;;7390513;19;20157;-75
2023/06/14 05:23:44;;;;;;;3.58;3.25;;;18.60;90.30;;;;;;7390849;19;20150;-75
2023/06/14 05:26:10;;;;;;;3.13;2.83;;;18.60;90.00;;;;;;7393259;19;20666;-74
2023/06/14 05:28:36;;;;;;;3.38;3.00;;;18.60;90.10;;;;;;7388908;19;20492;-75
2023/06/14 05:31:02;;;;;;;3.20;2.90;;;18.60;89.90;;;;;;7386903;19;20142;-76
2023/06/14 05:33:28;;;;;;;4.28;2.88;;;18.70;90.00;;;;;;7391667;19;20138;-75
2023/06/14 05:35:55;;;;;;;4.65;3.13;;;18.80;90.50;;;;;;7384731;19;20677;-75
2023/06/14 05:38:21;;;;;;;5.95;3.75;;;18.90;90.60;;;;;;7382211;19;20158;-75
2023/06/14 05:40:46;;;;;;;4.00;3.20;;;19.00;90.90;;;;;;7388763;19;20395;-76
2023/06/14 05:43:12;;;;;;;5.50;2.92;;;18.90;90.30;;;;;;7387793;19;20178;-75
2023/06/14 05:45:38;;;;;;;5.32;3.35;;;19.00;90.60;;;;;;7388956;19;20170;-74
2023/06/14 05:48:04;;;;;;;3.60;3.08;;;19.00;90.40;;;;;;7392457;19;20587;-74
2023/06/14 05:50:30;;;;;;;5.28;3.53;;;19.10;90.50;;;;;;7388116;19;20134;-74
2023/06/14 05:52:56;;;;;;;3.92;3.10;;;19.10;90.70;;;;;;7390739;19;20163;-74
2023/06/14 05:55:22;;;;;;;4.70;3.28;;;19.30;90.30;;;;;;7390173;19;20138;-75
2023/06/14 05:57:48;;;;;;;6.90;3.67;;;19.30;90.50;;;;;;7389755;19;20131;-75
2023/06/14 06:00:15;;;;;;;5.85;4.10;;;19.40;89.80;;;;;;7383774;19;20437;-75
2023/06/14 06:02:43;;;;;;;4.15;3.17;;;19.40;90.10;;;;;;7388886;19;20134;-75
2023/06/14 06:05:12;;;;;;;4.72;3.42;;;19.20;90.30;;;;;;7390297;19;20158;-77
2023/06/14 06:07:42;;;;;;;6.03;3.90;;;19.40;90.00;;;;;;7389027;19;20143;-76
2023/06/14 06:10:08;;;;;;;3.78;3.22;;;19.50;89.40;;;;;;7390372;19;20135;-74
2023/06/14 06:12:34;;;;;;;7.43;3.60;;;20.20;88.50;;;;;;7387938;19;20471;-75
2023/06/14 06:15:00;;;;;;;5.25;3.53;;;22.00;84.00;;;;;;7390628;19;20157;-74
2023/06/14 06:17:26;;;;;;;4.78;3.17;;;23.70;78.20;;;;;;7386388;19;20155;-75
2023/06/14 06:19:52;;;;;;;5.93;3.25;;;24.50;75.00;;;;;;7389774;19;20138;-76
2023/06/14 06:22:18;;;;;;;3.60;3.20;;;24.80;74.00;;;;;;7387915;19;20214;-77
2023/06/14 06:24:43;;;;;;;5.25;3.70;;;25.40;72.80;;;;;;7388085;19;20143;-76
2023/06/14 06:27:10;;;;;;;3.53;3.00;;;26.10;70.60;;;;;;7386438;19;20131;-76
2023/06/14 06:29:36;;;;;;;5.67;3.90;;;27.20;68.30;;;;;;7382732;19;20379;-76
2023/06/14 06:32:02;;;;;;;5.88;3.33;;;27.50;65.90;;;;;;7389210;19;20529;-79
2023/06/14 06:34:29;;;;;;;6.43;3.35;;;27.60;65.90;;;;;;7389352;19;20205;-78
2023/06/14 06:36:55;;;;;;;5.18;3.65;;;28.00;65.40;;;;;;7387486;19;20309;-78
2023/06/14 06:39:20;;;;;;;5.53;3.33;;;28.30;65.00;;;;;;7388578;19;20575;-80
2023/06/14 06:41:46;;;;;;;4.20;3.10;;;28.80;63.50;;;;;;7384752;19;20214;-79
2023/06/14 06:44:12;;;;;;;4.30;3.00;;;28.80;62.90;;;;;;7386948;19;20732;-76
2023/06/14 06:46:42;;;;;;;3.17;2.80;;;29.00;62.70;;;;;;7389825;19;20158;-77
2023/06/14 06:49:09;;;;;;;5.65;2.97;;;29.30;61.50;;;;;;7390105;19;20456;-77
2023/06/14 06:51:41;;;;;;;4.68;2.97;;;29.30;60.60;;;;;;7385943;19;20583;-76
2023/06/14 06:54:10;;;;;;;4.95;3.03;;;29.60;59.70;;;;;;7386886;19;20131;-78
2023/06/14 06:56:36;;;;;;;4.95;3.08;;;29.90;59.10;;;;;;7387541;19;20162;-78
2023/06/14 06:59:02;;;;;;;4.70;2.40;;;29.10;60.20;;;;;;7390348;19;20147;-77
2023/06/14 07:01:28;;;;;;;5.32;2.78;;;29.40;59.80;;;;;;7392664;19;20486;-80
2023/06/14 07:03:55;;;;;;;4.38;3.03;;;29.30;59.30;;;;;;7391464;19;20141;-78
2023/06/14 07:06:21;;;;;;;4.93;3.05;;;29.40;59.40;;;;;;7392701;19;20159;-76
2023/06/14 07:08:50;;;;;;;4.63;3.28;;;28.80;59.60;;;;;;7392317;19;20462;-82
2023/06/14 07:11:16;;;;;;;6.30;2.85;;;28.60;60.00;;;;;;7398883;19;20134;-85
2023/06/14 07:13:41;;;;;;;3.42;2.92;;;28.20;60.10;;;;;;7393985;19;20238;-80
2023/06/14 07:16:07;;;;;;;4.15;3.30;;;27.80;60.90;;;;;;7394763;19;20149;-77
2023/06/14 07:18:33;;;;;;;4.90;3.28;;;27.70;61.30;;;;;;7392638;19;20134;-78
2023/06/14 07:21:04;;;;;;;5.00;3.50;;;27.50;61.10;;;;;;7392638;19;20370;-78
2023/06/14 07:23:31;;;;;;;7.05;3.10;;;27.10;61.30;;;;;;7392076;19;20142;-82
2023/06/14 07:25:57;;;;;;;5.20;2.85;;;27.00;62.20;;;;;;7392325;19;20597;-82
2023/06/14 07:28:22;;;;;;;4.32;2.58;;;26.80;62.60;;;;;;7391323;19;20151;-87
2023/06/14 07:30:48;;;;;;;3.85;2.97;;;26.50;63.00;;;;;;7391640;19;20155;-87
2023/06/14 07:33:14;;;;;;;7.78;4.00;;;26.40;63.20;;;;;;7393398;19;20755;-82
2023/06/14 07:35:43;;;;;;;3.65;2.80;;;26.50;63.00;;;;;;7390699;19;20142;-87
2023/06/14 07:38:09;;;;;;;3.28;2.90;;;26.20;63.30;;;;;;7387397;19;20137;-83
2023/06/14 07:40:35;;;;;;;3.28;2.80;;;26.20;64.10;;;;;;7387426;19;20602;-84
2023/06/14 07:43:02;;;;;;;3.33;2.72;;;26.40;62.70;;;;;;7382498;19;20146;-81
2023/06/14 07:45:31;;;;;;;5.65;3.40;;;26.50;63.70;;;;;;7386290;19;20142;-82
2023/06/14 07:47:56;;;;;;;5.35;2.80;;;26.80;62.50;;;;;;7387825;19;20134;-85
2023/06/14 07:50:23;;;;;;;5.57;3.28;;;27.00;62.20;;;;;;7388426;19;20133;-84
2023/06/14 07:52:48;;;;;;;6.07;4.22;;;27.00;61.80;;;;;;7386795;19;20157;-86
2023/06/14 07:55:16;;;;;;;4.70;3.60;;;26.80;62.00;;;;;;7394980;19;20147;-84
2023/06/14 07:57:44;;;;;;;6.75;4.35;;;26.70;62.40;;;;;;7394725;19;20144;-82
2023/06/14 08:00:14;;;;;;;3.60;2.72;;;26.20;63.30;;;;;;7395313;19;20138;-85
2023/06/14 08:02:41;;;;;;;3.80;3.30;;;26.20;63.90;;;;;;7387036;19;20146;-76
2023/06/14 08:05:11;;;;;;;3.60;3.10;;;26.10;64.10;;;;;;7383909;19;20746;-83
2023/06/14 08:07:37;;;;;;;4.35;2.80;;;26.20;64.10;;;;;;7387015;19;20403;-83
2023/06/14 08:10:04;;;;;;;3.22;2.92;;;25.70;65.70;;;;;;7389043;19;20138;-76
2023/06/14 08:12:29;;;;;;;5.10;2.83;;;25.60;66.30;;;;;;7388283;19;20599;-82
2023/06/14 08:14:55;;;;;;;5.22;3.08;;;25.90;66.20;;;;;;7385541;19;20134;-75
2023/06/14 08:17:21;;;;;;;3.60;2.83;;;26.30;65.90;;;;;;7385844;19;20495;-82
2023/06/14 08:19:47;;;;;;;3.95;3.13;;;26.80;65.60;;;;;;7383426;19;20182;-79
2023/06/14 08:22:12;;;;;;;4.47;3.08;;;27.10;64.70;;;;;;7385510;19;20138;-81
2023/06/14 08:24:39;;;;;;;3.45;2.80;;;27.30;64.80;;;;;;7385360;19;20525;-80
2023/06/14 08:27:05;;;;;;;2.78;2.58;;;27.20;64.80;;;;;;7387473;19;20142;-77
2023/06/14 08:29:31;;;;;;;5.40;3.10;;;27.10;64.40;;;;;;7386978;19;20271;-77
2023/06/14 08:31:57;;;;;;;4.82;3.08;;;26.80;65.60;;;;;;7383940;19;20184;-78
2023/06/14 08:34:23;;;;;;;5.50;3.15;;;26.90;66.40;;;;;;7385230;19;20479;-79
2023/06/14 08:36:52;;;;;;;3.67;2.85;;;27.10;65.80;;;;;;7382019;19;20210;-80
2023/06/14 08:39:18;;;;;;;5.07;2.72;;;26.80;65.80;;;;;;7382914;19;20651;-79
2023/06/14 08:41:46;;;;;;;4.22;2.92;;;26.70;66.00;;;;;;7385235;19;20127;-78
2023/06/14 08:44:12;;;;;;;3.85;3.25;;;26.70;66.50;;;;;;7383043;19;20150;-77
2023/06/14 08:46:41;;;;;;;6.35;3.25;;;26.60;66.90;;;;;;7385194;19;20127;-77
2023/06/14 08:49:14;;;;;;;3.40;3.10;;;26.30;67.40;;;;;;7382825;19;20266;-77
2023/06/14 08:51:43;;;;;;;5.45;3.05;;;26.10;67.80;;;;;;7385635;19;20139;-77
2023/06/14 08:54:11;;;;;;;3.28;2.78;;;26.20;67.50;;;;;;7391012;19;20134;-77
2023/06/14 08:56:38;;;;;;;5.10;3.30;;;26.30;67.20;;;;;;7391614;19;20146;-77
2023/06/14 08:59:06;;;;;;;4.20;3.03;;;26.20;66.60;;;;;;7390601;19;20152;-78
2023/06/14 09:01:37;;;;;;;4.05;2.90;;;25.90;66.90;;;;;;7392111;19;20268;-78
2023/06/14 09:04:05;;;;;;;4.88;2.97;;;26.10;66.40;;;;;;7388676;19;20209;-77
2023/06/14 09:06:31;;;;;;;6.70;3.20;;;26.10;67.20;;;;;;7390221;19;20139;-77
2023/06/14 09:08:57;;;;;;;3.78;2.65;;;26.30;65.90;;;;;;7390312;19;21008;-77
2023/06/14 09:11:25;;;;;;;4.30;3.08;;;26.10;66.50;;;;;;7390909;19;20169;-79
2023/06/14 09:13:51;;;;;;;3.67;2.92;;;25.90;67.80;;;;;;7387965;19;20153;-77
2023/06/14 09:16:17;;;;;;;4.10;2.85;;;25.80;68.50;;;;;;7388973;19;20150;-76
2023/06/14 09:18:47;;;;;;;6.72;3.63;;;25.50;69.10;;;;;;7389323;19;20545;-77
2023/06/14 09:21:14;;;;;;;6.72;2.78;;;25.50;68.30;;;;;;7386873;19;20495;-77
2023/06/14 09:23:40;;;;;;;4.03;2.58;;;25.50;67.90;;;;;;7388791;19;20206;-77
2023/06/14 09:26:15;;;;;;;4.93;2.97;;;25.50;67.00;;;;;;7391775;19;20250;-77
2023/06/14 09:28:46;;;;;;;5.72;3.22;;;25.50;67.20;;;;;;7388994;19;20486;-78
2023/06/14 09:31:15;;;;;;;5.88;3.05;;;25.50;66.70;;;;;;7388465;19;20148;-76
2023/06/14 09:33:48;;;;;;;3.38;3.08;;;25.40;66.80;;;;;;7389560;19;20161;-77
2023/06/14 09:36:21;;;;;;;4.72;3.10;;;25.00;69.00;;;;;;7388062;19;20158;-78
2023/06/14 09:39:04;;;;;;;6.22;3.00;;;24.90;70.30;;;;;;7389276;19;20579;-78
2023/06/14 09:41:38;;;;;;;3.17;2.88;;;24.80;69.90;;;;;;7389673;19;20141;-77
2023/06/14 09:44:09;;;;;;;3.65;2.70;;;24.80;70.60;;;;;;7386325;19;20217;-76
2023/06/14 09:46:36;;;;;;;5.00;3.03;;;25.00;71.00;;;;;;7389597;19;20150;-75
2023/06/14 09:49:03;;;;;;;3.20;2.90;;;25.20;70.00;;;;;;7388757;19;20146;-76
2023/06/14 09:51:32;;;;;;;4.13;2.72;;;25.00;70.10;;;;;;7390731;19;20556;-77
2023/06/14 09:54:04;;;;;;;7.55;2.83;;;25.00;70.50;;;;;;7388091;19;20172;-76
2023/06/14 09:56:44;;;;;;;4.18;2.95;;;25.10;70.00;;;;;;7387403;19;20168;-76
2023/06/14 09:59:12;;;;;;;5.93;3.75;;;25.10;69.30;;;;;;7389366;19;20600;-77
2023/06/14 10:01:42;;;;;;;3.97;2.90;;;24.90;69.50;;;;;;7387394;19;20150;-77
2023/06/14 10:04:09;;;;;;;4.80;3.40;;;24.70;70.60;;;;;;7389671;19;20130;-77
2023/06/14 10:06:45;;;;;;;3.63;2.50;;;24.70;70.90;;;;;;7390442;19;20142;-78
2023/06/14 10:09:12;;;;;;;3.40;2.60;;;24.70;69.60;;;;;;7389395;19;20545;-77
2023/06/14 10:11:43;;;;;;;2.72;2.40;;;24.60;64.80;;;;;;7388478;19;20154;-78
2023/06/14 10:14:11;;;;;;;3.22;2.70;;;24.60;64.60;;;;;;7387908;19;20143;-76
2023/06/14 10:16:45;;;;;;;5.50;3.17;;;24.60;62.30;;;;;;7386033;19;20156;-77
2023/06/14 10:19:34;;;;;;;5.35;2.47;;;24.80;61.70;;;;;;7388286;19;20139;-78
2023/06/14 10:22:22;;;;;;;4.90;2.28;;;24.90;61.10;;;;;;7386800;19;20163;-79
2023/06/14 10:24:50;;;;;;;4.30;2.60;;;24.80;63.80;;;;;;7388081;19;20157;-77
2023/06/14 10:27:23;;;;;;;2.90;2.50;;;24.80;64.30;;;;;;7389739;19;20451;-76
2023/06/14 10:29:57;;;;;;;3.38;2.75;;;24.90;64.70;;;;;;7389179;19;20648;-76
2023/06/14 10:32:28;;;;;;;3.08;2.78;;;25.10;63.50;;;;;;7386037;19;20159;-76
2023/06/14 10:34:56;;;;;;;4.35;3.10;;;25.00;66.60;;;;;;7389751;19;20502;-79
2023/06/14 10:37:22;;;;;;;3.60;2.78;;;25.00;67.60;;;;;;7385329;19;20523;-79
2023/06/14 10:39:51;;;;;;;4.65;2.95;;;25.00;67.50;;;;;;7389573;19;20158;-80
2023/06/14 10:42:17;;;;;;;3.60;3.13;;;25.00;67.30;;;;;;7386688;19;20459;-79
2023/06/14 10:44:50;;;;;;;4.40;2.85;;;25.00;66.40;;;;;;7389531;19;20242;-76
2023/06/14 10:47:34;;;;;;;3.47;2.97;;;25.00;66.40;;;;;;7386224;19;20133;-76
2023/06/14 10:50:05;;;;;;;5.30;3.08;;;24.80;67.10;;;;;;7386747;19;20214;-78
2023/06/14 10:52:38;;;;;;;6.40;3.22;;;24.90;67.00;;;;;;7388035;19;20271;-77
2023/06/14 10:55:22;;;;;;;3.67;2.70;;;24.90;67.70;;;;;;7385743;19;20202;-75
2023/06/14 10:57:58;;;;;;;5.95;4.38;;;25.00;65.90;;;;;;7387579;19;20229;-77
2023/06/14 11:00:29;;;;;;;6.40;2.55;;;25.10;67.20;;;;;;7389405;19;20135;-75
2023/06/14 11:03:10;;;;;;;3.78;2.63;;;25.20;65.80;;;;;;7387980;19;20173;-74
2023/06/14 11:05:50;;;;;;;4.28;3.58;;;25.30;64.80;;;;;;7388838;19;20131;-74
2023/06/14 11:08:19;;;;;;;3.08;2.50;;;25.20;64.70;;;;;;7386568;19;20156;-75
2023/06/14 11:10:47;;;;;;;6.80;2.90;;;25.10;64.90;;;;;;7387627;19;20141;-74
2023/06/14 11:13:16;;;;;;;3.42;2.75;;;25.20;64.30;;;;;;7388714;19;20245;-75
2023/06/14 11:15:47;;;;;;;3.33;2.85;;;25.20;64.50;;;;;;7384174;19;20138;-76
2023/06/14 11:18:16;;;;;;;4.05;2.40;;;25.30;63.80;;;;;;7389854;19;20131;-75
2023/06/14 11:20:42;;;;;;;6.32;2.75;;;25.30;62.80;;;;;;7386106;19;20163;-78
2023/06/14 11:23:08;;;;;;;4.38;2.78;;;25.30;62.30;;;;;;7388307;19;20186;-74
2023/06/14 11:25:34;;;;;;;5.15;3.50;;;25.40;62.80;;;;;;7387220;19;20232;-76
2023/06/14 11:28:00;;;;;;;2.50;2.30;;;25.50;61.80;;;;;;7387388;19;20139;-76
2023/06/14 11:30:26;;;;;;;3.47;2.47;;;25.60;61.90;;;;;;7384444;19;20127;-76
2023/06/14 11:32:55;;;;;;;3.60;2.60;;;25.40;62.80;;;;;;7388269;19;20135;-76
2023/06/14 11:35:25;;;;;;;6.65;2.88;;;25.50;62.30;;;;;;7387649;19;20135;-76
2023/06/14 11:37:57;;;;;;;6.15;2.65;;;25.70;61.30;;;;;;7387647;19;20470;-76
2023/06/14 11:40:27;;;;;;;2.80;2.60;;;25.70;59.90;;;;;;7385832;19;20144;-76
2023/06/14 11:43:01;;;;;;;4.35;2.80;;;25.70;59.60;;;;;;7386840;19;20474;-76
2023/06/14 11:45:27;;;;;;;3.25;2.55;;;25.60;59.40;;;;;;7387339;19;20181;-76
2023/06/14 11:47:56;;;;;;;3.58;2.67;;;25.60;60.50;;;;;;7386464;19;20166;-74
2023/06/14 11:50:22;;;;;;;4.55;2.90;;;25.70;60.70;;;;;;7384668;19;22312;-74
2023/06/14 11:52:59;;;;;;;7.03;4.50;;;25.90;60.30;;;;;;7384417;19;20391;-73
2023/06/14 11:55:25;;;;;;;4.43;3.20;;;26.10;59.20;;;;;;7384818;19;20520;-74
2023/06/14 11:57:54;;;;;;;5.75;4.68;;;26.20;59.20;;;;;;7386499;19;20135;-73
2023/06/14 12:00:25;;;;;;;3.55;2.70;;;26.20;58.40;;;;;;7388339;19;20905;-75
2023/06/14 12:02:57;;;;;;;5.07;2.42;;;26.00;58.90;;;;;;7386031;19;20138;-75
2023/06/14 12:05:29;;;;;;;2.60;2.40;;;25.90;59.00;;;;;;7384444;19;20193;-75
2023/06/14 12:08:05;;;;;;;3.45;2.83;;;26.10;59.80;;;;;;7386804;19;20202;-77
2023/06/14 12:10:45;;;;;;;2.42;2.22;;;26.10;60.20;;;;;;7386519;19;20138;-75
2023/06/14 12:13:11;;;;;;;4.78;2.60;;;26.20;60.00;;;;;;7385890;19;20154;-74
2023/06/14 12:15:38;;;;;;;3.47;2.63;;;26.10;60.30;;;;;;7384868;19;21078;-74
2023/06/14 12:18:10;;;;;;;5.70;3.30;;;26.00;59.70;;;;;;7386285;19;20487;-74
2023/06/14 12:20:38;;;;;;;4.15;2.70;;;25.90;59.40;;;;;;7387404;19;20134;-74
2023/06/14 12:23:04;;;;;;;3.88;2.90;;;25.80;59.30;;;;;;7384535;19;20158;-73
2023/06/14 12:25:35;;;;;;;3.00;2.70;;;25.70;60.00;;;;;;7384800;19;20146;-75
2023/06/14 12:28:11;;;;;;;3.60;3.00;;;25.60;60.60;;;;;;7389686;19;20170;-78
2023/06/14 12:30:38;;;;;;;5.25;2.75;;;25.60;59.90;;;;;;7389665;19;20142;-75
2023/06/14 12:33:04;;;;;;;4.88;3.25;;;25.60;60.40;;;;;;7392511;19;20391;-73
2023/06/14 12:35:30;;;;;;;3.70;2.93;;;25.70;60.30;;;;;;7388484;19;20392;-74
2023/06/14 12:37:56;;;;;;;2.80;2.40;;;25.80;60.00;;;;;;7392767;19;20154;-76
2023/06/14 12:40:22;;;;;;;3.60;2.15;;;25.90;58.90;;;;;;7389977;19;20606;-77
2023/06/14 12:42:48;;;;;;;4.25;2.30;;;25.90;59.90;;;;;;7391134;19;20147;-78
2023/06/14 12:45:15;;;;;;;3.67;2.25;;;26.10;60.50;;;;;;7389706;19;20174;-78
2023/06/14 12:47:42;;;;;;;4.20;2.17;;;26.00;60.20;;;;;;7386239;19;20151;-76
2023/06/14 12:50:10;;;;;;;3.13;2.42;;;25.60;61.20;;;;;;7390950;19;20146;-80
2023/06/14 12:52:38;;;;;;;3.45;2.10;;;25.80;61.40;;;;;;7390729;19;20633;-79